エカテリンブルク の空港の天気 - METARとTAF

コルツォヴォ空港 ( USSS / SVX ) - ロシア エカテリンブルク
飛行場実況気象(Metar)
観測時間09/25 08:30 YEKT (09/25 03:30 UTC)
風向・風速東南東 2m/s
視程10km以上
天気現象
なし
気温12℃
湿度94%
気圧1017hPa
METARUSSS 250330Z 12002MPS CAVOK 12/11 Q1017 R26L/010060 R26R/090060 TEMPO 0300 FG VV002 RMK QFE742/0990
過去の天気等 Google飛行場航空写真 Wunderground天気予報

過去48時間のMETAR

飛行場予報(TAF)
発表時間: 9/25 06:58 YEKT (9/25 01:58 UTC)
予報対象時間: 25日8時 YEKT ~ 26日8時 YEKT
風向・風速南南東 3m/s
視程3100m
天気現象もや
なし
25日10時 YEKT から
風向・風速南 5m/s 瞬間風速 13m/s
視程10km以上
全天の4割程度の積乱雲 雲底高度 610m
TAF USSS 250158Z 2503/2603 16003MPS 3100 BR NSC
FM250500 19005G13MPS 9999 SCT020CB